sensor_id;sensor_type;location;lat;lon;timestamp;P1;durP1;ratioP1;P2;durP2;ratioP2
32864;SDS011;19219;44.500;11.188;2024-02-28T00:00:27;45.58;;;22.30;;
32864;SDS011;19219;44.500;11.188;2024-02-28T00:02:53;50.15;;;23.27;;
32864;SDS011;19219;44.500;11.188;2024-02-28T00:05:18;47.00;;;23.75;;
32864;SDS011;19219;44.500;11.188;2024-02-28T00:07:44;45.85;;;23.65;;
32864;SDS011;19219;44.500;11.188;2024-02-28T00:10:11;47.85;;;21.33;;
32864;SDS011;19219;44.500;11.188;2024-02-28T00:12:36;52.88;;;26.23;;
32864;SDS011;19219;44.500;11.188;2024-02-28T00:15:04;46.22;;;24.05;;
32864;SDS011;19219;44.500;11.188;2024-02-28T00:17:30;49.83;;;26.35;;
32864;SDS011;19219;44.500;11.188;2024-02-28T00:19:56;54.15;;;26.00;;
32864;SDS011;19219;44.500;11.188;2024-02-28T00:22:21;46.45;;;24.73;;
32864;SDS011;19219;44.500;11.188;2024-02-28T00:24:47;50.10;;;24.80;;
32864;SDS011;19219;44.500;11.188;2024-02-28T00:27:13;56.22;;;27.33;;
32864;SDS011;19219;44.500;11.188;2024-02-28T00:29:39;56.28;;;26.60;;
32864;SDS011;19219;44.500;11.188;2024-02-28T00:32:04;48.63;;;24.52;;
32864;SDS011;19219;44.500;11.188;2024-02-28T00:34:30;52.67;;;24.05;;
32864;SDS011;19219;44.500;11.188;2024-02-28T00:36:56;47.90;;;23.10;;
32864;SDS011;19219;44.500;11.188;2024-02-28T00:39:22;45.45;;;22.95;;
32864;SDS011;19219;44.500;11.188;2024-02-28T00:41:48;44.88;;;22.33;;
32864;SDS011;19219;44.500;11.188;2024-02-28T00:44:13;43.88;;;22.83;;
32864;SDS011;19219;44.500;11.188;2024-02-28T00:46:39;44.85;;;21.67;;
32864;SDS011;19219;44.500;11.188;2024-02-28T00:49:05;46.50;;;21.80;;
32864;SDS011;19219;44.500;11.188;2024-02-28T00:51:31;44.15;;;21.80;;
32864;SDS011;19219;44.500;11.188;2024-02-28T00:53:56;44.95;;;19.80;;
32864;SDS011;19219;44.500;11.188;2024-02-28T00:56:22;46.10;;;20.95;;
32864;SDS011;19219;44.500;11.188;2024-02-28T00:58:49;40.90;;;19.38;;
32864;SDS011;19219;44.500;11.188;2024-02-28T01:01:15;39.22;;;19.20;;
32864;SDS011;19219;44.500;11.188;2024-02-28T01:03:40;37.88;;;18.13;;
32864;SDS011;19219;44.500;11.188;2024-02-28T01:06:06;36.97;;;18.98;;
32864;SDS011;19219;44.500;11.188;2024-02-28T01:08:32;33.55;;;18.48;;
32864;SDS011;19219;44.500;11.188;2024-02-28T01:10:57;39.45;;;18.25;;
32864;SDS011;19219;44.500;11.188;2024-02-28T01:13:24;38.47;;;19.52;;
32864;SDS011;19219;44.500;11.188;2024-02-28T01:15:49;37.35;;;17.70;;
32864;SDS011;19219;44.500;11.188;2024-02-28T01:18:15;35.25;;;17.58;;
32864;SDS011;19219;44.500;11.188;2024-02-28T01:20:41;32.33;;;16.33;;
32864;SDS011;19219;44.500;11.188;2024-02-28T01:23:07;35.33;;;17.90;;
32864;SDS011;19219;44.500;11.188;2024-02-28T01:25:32;32.67;;;17.20;;
32864;SDS011;19219;44.500;11.188;2024-02-28T01:27:58;34.92;;;17.95;;
32864;SDS011;19219;44.500;11.188;2024-02-28T01:30:24;36.40;;;17.55;;
32864;SDS011;19219;44.500;11.188;2024-02-28T01:32:50;39.20;;;18.20;;
32864;SDS011;19219;44.500;11.188;2024-02-28T01:35:15;33.92;;;17.90;;
32864;SDS011;19219;44.500;11.188;2024-02-28T01:37:41;39.70;;;19.80;;
32864;SDS011;19219;44.500;11.188;2024-02-28T01:40:07;40.22;;;19.17;;
32864;SDS011;19219;44.500;11.188;2024-02-28T01:42:33;38.65;;;18.65;;
32864;SDS011;19219;44.500;11.188;2024-02-28T01:44:59;41.42;;;18.08;;
32864;SDS011;19219;44.500;11.188;2024-02-28T01:47:24;45.03;;;20.02;;
32864;SDS011;19219;44.500;11.188;2024-02-28T01:49:50;39.42;;;21.15;;
32864;SDS011;19219;44.500;11.188;2024-02-28T01:52:18;39.13;;;19.95;;
32864;SDS011;19219;44.500;11.188;2024-02-28T01:54:44;40.63;;;20.73;;
32864;SDS011;19219;44.500;11.188;2024-02-28T01:57:09;42.28;;;19.35;;
32864;SDS011;19219;44.500;11.188;2024-02-28T01:59:35;46.25;;;20.95;;
32864;SDS011;19219;44.500;11.188;2024-02-28T02:02:02;40.00;;;21.00;;
32864;SDS011;19219;44.500;11.188;2024-02-28T02:04:28;37.03;;;17.77;;
32864;SDS011;19219;44.500;11.188;2024-02-28T02:06:54;36.08;;;17.75;;
32864;SDS011;19219;44.500;11.188;2024-02-28T02:09:23;37.28;;;16.35;;
32864;SDS011;19219;44.500;11.188;2024-02-28T02:11:49;39.03;;;17.75;;
32864;SDS011;19219;44.500;11.188;2024-02-28T02:14:15;37.03;;;18.30;;
32864;SDS011;19219;44.500;11.188;2024-02-28T02:16:40;39.28;;;17.67;;
32864;SDS011;19219;44.500;11.188;2024-02-28T02:19:07;39.75;;;19.55;;
32864;SDS011;19219;44.500;11.188;2024-02-28T02:21:35;40.28;;;21.20;;
32864;SDS011;19219;44.500;11.188;2024-02-28T02:24:15;43.90;;;22.05;;
32864;SDS011;19219;44.500;11.188;2024-02-28T02:26:41;37.50;;;19.42;;
32864;SDS011;19219;44.500;11.188;2024-02-28T02:29:09;38.72;;;21.17;;
32864;SDS011;19219;44.500;11.188;2024-02-28T02:31:35;37.80;;;18.27;;
32864;SDS011;19219;44.500;11.188;2024-02-28T02:34:01;35.85;;;18.67;;
32864;SDS011;19219;44.500;11.188;2024-02-28T02:36:26;36.00;;;17.00;;
32864;SDS011;19219;44.500;11.188;2024-02-28T02:38:52;39.67;;;19.10;;
32864;SDS011;19219;44.500;11.188;2024-02-28T02:41:17;33.83;;;18.48;;
32864;SDS011;19219;44.500;11.188;2024-02-28T02:43:43;31.65;;;16.35;;
32864;SDS011;19219;44.500;11.188;2024-02-28T02:46:09;28.73;;;16.52;;
32864;SDS011;19219;44.500;11.188;2024-02-28T02:48:35;35.72;;;16.35;;
32864;SDS011;19219;44.500;11.188;2024-02-28T02:51:01;34.55;;;17.95;;
32864;SDS011;19219;44.500;11.188;2024-02-28T02:53:27;34.00;;;16.60;;
32864;SDS011;19219;44.500;11.188;2024-02-28T02:55:53;31.83;;;14.85;;
32864;SDS011;19219;44.500;11.188;2024-02-28T02:58:19;30.90;;;15.73;;
32864;SDS011;19219;44.500;11.188;2024-02-28T03:00:44;32.10;;;16.30;;
32864;SDS011;19219;44.500;11.188;2024-02-28T03:03:10;33.60;;;16.75;;
32864;SDS011;19219;44.500;11.188;2024-02-28T03:05:36;31.10;;;16.48;;
32864;SDS011;19219;44.500;11.188;2024-02-28T03:08:01;35.90;;;18.92;;
32864;SDS011;19219;44.500;11.188;2024-02-28T03:10:27;40.80;;;19.45;;
32864;SDS011;19219;44.500;11.188;2024-02-28T03:12:53;46.67;;;20.48;;
32864;SDS011;19219;44.500;11.188;2024-02-28T03:15:19;40.08;;;21.25;;
32864;SDS011;19219;44.500;11.188;2024-02-28T03:17:45;39.53;;;21.23;;
32864;SDS011;19219;44.500;11.188;2024-02-28T03:20:11;38.97;;;19.80;;
32864;SDS011;19219;44.500;11.188;2024-02-28T03:22:39;47.40;;;20.23;;
32864;SDS011;19219;44.500;11.188;2024-02-28T03:25:05;32.75;;;16.20;;
32864;SDS011;19219;44.500;11.188;2024-02-28T03:27:31;31.70;;;14.85;;
32864;SDS011;19219;44.500;11.188;2024-02-28T03:29:57;33.97;;;15.82;;
32864;SDS011;19219;44.500;11.188;2024-02-28T03:32:23;33.53;;;15.77;;
32864;SDS011;19219;44.500;11.188;2024-02-28T03:34:48;34.13;;;16.15;;
32864;SDS011;19219;44.500;11.188;2024-02-28T03:37:14;35.53;;;14.75;;
32864;SDS011;19219;44.500;11.188;2024-02-28T03:39:40;38.58;;;18.30;;
32864;SDS011;19219;44.500;11.188;2024-02-28T03:42:06;41.22;;;17.92;;
32864;SDS011;19219;44.500;11.188;2024-02-28T03:44:31;44.83;;;18.80;;
32864;SDS011;19219;44.500;11.188;2024-02-28T03:46:57;52.38;;;21.02;;
32864;SDS011;19219;44.500;11.188;2024-02-28T03:49:23;53.08;;;22.55;;
32864;SDS011;19219;44.500;11.188;2024-02-28T03:51:48;73.18;;;27.83;;
32864;SDS011;19219;44.500;11.188;2024-02-28T03:54:14;60.10;;;26.67;;
32864;SDS011;19219;44.500;11.188;2024-02-28T03:56:39;66.63;;;24.77;;
32864;SDS011;19219;44.500;11.188;2024-02-28T03:59:05;56.97;;;23.92;;
32864;SDS011;19219;44.500;11.188;2024-02-28T04:01:31;69.35;;;26.30;;
32864;SDS011;19219;44.500;11.188;2024-02-28T04:03:56;65.45;;;26.27;;
32864;SDS011;19219;44.500;11.188;2024-02-28T04:06:22;69.18;;;26.77;;
32864;SDS011;19219;44.500;11.188;2024-02-28T04:08:48;78.07;;;25.30;;
32864;SDS011;19219;44.500;11.188;2024-02-28T04:11:14;67.55;;;24.23;;
32864;SDS011;19219;44.500;11.188;2024-02-28T04:13:40;69.13;;;24.30;;
32864;SDS011;19219;44.500;11.188;2024-02-28T04:16:07;65.03;;;24.17;;
32864;SDS011;19219;44.500;11.188;2024-02-28T04:18:33;57.75;;;22.80;;
32864;SDS011;19219;44.500;11.188;2024-02-28T04:20:59;54.55;;;21.90;;
32864;SDS011;19219;44.500;11.188;2024-02-28T04:23:24;59.67;;;22.25;;
32864;SDS011;19219;44.500;11.188;2024-02-28T04:25:50;54.65;;;22.80;;
32864;SDS011;19219;44.500;11.188;2024-02-28T04:28:16;53.08;;;20.83;;
32864;SDS011;19219;44.500;11.188;2024-02-28T04:30:41;52.63;;;22.15;;
32864;SDS011;19219;44.500;11.188;2024-02-28T04:33:07;66.72;;;25.65;;
32864;SDS011;19219;44.500;11.188;2024-02-28T04:35:33;59.65;;;23.70;;
32864;SDS011;19219;44.500;11.188;2024-02-28T04:37:59;62.53;;;26.65;;
32864;SDS011;19219;44.500;11.188;2024-02-28T04:40:24;59.65;;;22.38;;
32864;SDS011;19219;44.500;11.188;2024-02-28T04:42:50;61.85;;;22.83;;
32864;SDS011;19219;44.500;11.188;2024-02-28T04:45:16;64.00;;;20.83;;
32864;SDS011;19219;44.500;11.188;2024-02-28T04:47:41;62.25;;;21.85;;
32864;SDS011;19219;44.500;11.188;2024-02-28T04:50:07;71.35;;;22.98;;
32864;SDS011;19219;44.500;11.188;2024-02-28T04:52:34;63.72;;;24.08;;
32864;SDS011;19219;44.500;11.188;2024-02-28T04:55:00;57.92;;;23.63;;
32864;SDS011;19219;44.500;11.188;2024-02-28T04:57:26;65.70;;;23.95;;
32864;SDS011;19219;44.500;11.188;2024-02-28T04:59:52;70.40;;;26.98;;
32864;SDS011;19219;44.500;11.188;2024-02-28T05:02:18;58.38;;;21.63;;
32864;SDS011;19219;44.500;11.188;2024-02-28T05:04:43;65.38;;;21.13;;
32864;SDS011;19219;44.500;11.188;2024-02-28T05:07:09;65.88;;;23.55;;
32864;SDS011;19219;44.500;11.188;2024-02-28T05:09:35;65.75;;;25.52;;
32864;SDS011;19219;44.500;11.188;2024-02-28T05:12:01;61.83;;;22.25;;
32864;SDS011;19219;44.500;11.188;2024-02-28T05:14:27;62.90;;;23.58;;
32864;SDS011;19219;44.500;11.188;2024-02-28T05:16:53;51.45;;;20.80;;
32864;SDS011;19219;44.500;11.188;2024-02-28T05:19:18;63.17;;;21.90;;
32864;SDS011;19219;44.500;11.188;2024-02-28T05:21:46;59.35;;;22.55;;
32864;SDS011;19219;44.500;11.188;2024-02-28T05:24:13;51.22;;;20.35;;
32864;SDS011;19219;44.500;11.188;2024-02-28T05:26:38;54.40;;;21.15;;
32864;SDS011;19219;44.500;11.188;2024-02-28T05:29:04;59.75;;;22.15;;
32864;SDS011;19219;44.500;11.188;2024-02-28T05:31:31;54.45;;;21.33;;
32864;SDS011;19219;44.500;11.188;2024-02-28T05:33:57;50.55;;;22.00;;
32864;SDS011;19219;44.500;11.188;2024-02-28T05:36:24;59.40;;;23.85;;
32864;SDS011;19219;44.500;11.188;2024-02-28T05:38:52;74.63;;;23.13;;
32864;SDS011;19219;44.500;11.188;2024-02-28T05:41:18;73.97;;;26.17;;
32864;SDS011;19219;44.500;11.188;2024-02-28T05:43:44;69.03;;;27.08;;
32864;SDS011;19219;44.500;11.188;2024-02-28T05:46:11;83.05;;;27.75;;
32864;SDS011;19219;44.500;11.188;2024-02-28T05:48:37;91.53;;;28.48;;
32864;SDS011;19219;44.500;11.188;2024-02-28T05:51:03;90.95;;;30.85;;
32864;SDS011;19219;44.500;11.188;2024-02-28T05:53:29;108.95;;;31.13;;
32864;SDS011;19219;44.500;11.188;2024-02-28T05:56:01;102.88;;;30.02;;
32864;SDS011;19219;44.500;11.188;2024-02-28T05:58:38;98.18;;;28.20;;
32864;SDS011;19219;44.500;11.188;2024-02-28T06:01:04;105.75;;;31.95;;
32864;SDS011;19219;44.500;11.188;2024-02-28T06:03:29;99.80;;;30.58;;
32864;SDS011;19219;44.500;11.188;2024-02-28T06:05:55;103.88;;;32.25;;
32864;SDS011;19219;44.500;11.188;2024-02-28T06:08:22;98.13;;;32.72;;
32864;SDS011;19219;44.500;11.188;2024-02-28T06:10:48;110.57;;;32.60;;
32864;SDS011;19219;44.500;11.188;2024-02-28T06:13:14;103.03;;;33.25;;
32864;SDS011;19219;44.500;11.188;2024-02-28T06:15:40;103.80;;;33.55;;
32864;SDS011;19219;44.500;11.188;2024-02-28T06:18:05;109.97;;;34.35;;
32864;SDS011;19219;44.500;11.188;2024-02-28T06:20:31;99.20;;;30.25;;
32864;SDS011;19219;44.500;11.188;2024-02-28T06:22:57;106.57;;;33.05;;
32864;SDS011;19219;44.500;11.188;2024-02-28T06:25:22;98.20;;;30.85;;
32864;SDS011;19219;44.500;11.188;2024-02-28T06:27:49;106.57;;;33.70;;
32864;SDS011;19219;44.500;11.188;2024-02-28T06:30:15;110.88;;;32.60;;
32864;SDS011;19219;44.500;11.188;2024-02-28T06:32:44;112.05;;;32.95;;
32864;SDS011;19219;44.500;11.188;2024-02-28T06:35:10;102.45;;;34.90;;
32864;SDS011;19219;44.500;11.188;2024-02-28T06:37:35;105.72;;;36.50;;
32864;SDS011;19219;44.500;11.188;2024-02-28T06:40:04;111.15;;;33.80;;
32864;SDS011;19219;44.500;11.188;2024-02-28T06:42:33;113.65;;;35.78;;
32864;SDS011;19219;44.500;11.188;2024-02-28T06:45:01;106.47;;;33.13;;
32864;SDS011;19219;44.500;11.188;2024-02-28T06:47:27;117.57;;;35.42;;
32864;SDS011;19219;44.500;11.188;2024-02-28T06:49:53;100.55;;;29.65;;
32864;SDS011;19219;44.500;11.188;2024-02-28T06:52:19;107.43;;;35.20;;
32864;SDS011;19219;44.500;11.188;2024-02-28T06:54:44;118.65;;;39.70;;
32864;SDS011;19219;44.500;11.188;2024-02-28T06:57:10;124.05;;;40.05;;
32864;SDS011;19219;44.500;11.188;2024-02-28T06:59:36;136.55;;;39.75;;
32864;SDS011;19219;44.500;11.188;2024-02-28T07:02:02;127.95;;;40.28;;
32864;SDS011;19219;44.500;11.188;2024-02-28T07:04:28;129.90;;;36.58;;
32864;SDS011;19219;44.500;11.188;2024-02-28T07:06:53;123.22;;;37.08;;
32864;SDS011;19219;44.500;11.188;2024-02-28T07:09:19;147.57;;;43.28;;
32864;SDS011;19219;44.500;11.188;2024-02-28T07:11:45;130.60;;;36.97;;
32864;SDS011;19219;44.500;11.188;2024-02-28T07:14:11;125.97;;;37.38;;
32864;SDS011;19219;44.500;11.188;2024-02-28T07:16:37;138.82;;;38.58;;
32864;SDS011;19219;44.500;11.188;2024-02-28T07:19:02;130.55;;;35.97;;
32864;SDS011;19219;44.500;11.188;2024-02-28T07:21:28;126.22;;;37.92;;
32864;SDS011;19219;44.500;11.188;2024-02-28T07:23:55;136.10;;;41.03;;
32864;SDS011;19219;44.500;11.188;2024-02-28T07:26:21;147.57;;;41.85;;
32864;SDS011;19219;44.500;11.188;2024-02-28T07:28:46;129.48;;;42.30;;
32864;SDS011;19219;44.500;11.188;2024-02-28T07:31:20;124.38;;;41.65;;
32864;SDS011;19219;44.500;11.188;2024-02-28T07:33:47;142.52;;;40.72;;
32864;SDS011;19219;44.500;11.188;2024-02-28T07:36:13;146.25;;;39.10;;
32864;SDS011;19219;44.500;11.188;2024-02-28T07:38:41;137.50;;;38.90;;
32864;SDS011;19219;44.500;11.188;2024-02-28T07:41:07;126.05;;;37.65;;
32864;SDS011;19219;44.500;11.188;2024-02-28T07:43:33;138.68;;;38.38;;
32864;SDS011;19219;44.500;11.188;2024-02-28T07:46:02;126.90;;;36.30;;
32864;SDS011;19219;44.500;11.188;2024-02-28T07:48:35;130.85;;;35.95;;
32864;SDS011;19219;44.500;11.188;2024-02-28T07:51:07;113.72;;;38.33;;
32864;SDS011;19219;44.500;11.188;2024-02-28T07:53:33;145.40;;;38.15;;
32864;SDS011;19219;44.500;11.188;2024-02-28T07:55:59;143.32;;;40.00;;
32864;SDS011;19219;44.500;11.188;2024-02-28T07:58:24;128.95;;;38.60;;
32864;SDS011;19219;44.500;11.188;2024-02-28T08:00:50;154.30;;;41.67;;
32864;SDS011;19219;44.500;11.188;2024-02-28T08:03:19;154.63;;;40.53;;
32864;SDS011;19219;44.500;11.188;2024-02-28T08:05:45;127.05;;;40.95;;
32864;SDS011;19219;44.500;11.188;2024-02-28T08:08:12;136.32;;;38.67;;
32864;SDS011;19219;44.500;11.188;2024-02-28T08:10:38;128.48;;;37.40;;
32864;SDS011;19219;44.500;11.188;2024-02-28T08:13:04;106.75;;;34.90;;
32864;SDS011;19219;44.500;11.188;2024-02-28T08:15:29;121.35;;;37.28;;
32864;SDS011;19219;44.500;11.188;2024-02-28T08:17:56;123.28;;;35.40;;
32864;SDS011;19219;44.500;11.188;2024-02-28T08:20:21;109.68;;;36.38;;
32864;SDS011;19219;44.500;11.188;2024-02-28T08:22:47;116.70;;;34.28;;
32864;SDS011;19219;44.500;11.188;2024-02-28T08:25:13;109.75;;;34.63;;
32864;SDS011;19219;44.500;11.188;2024-02-28T08:27:39;125.47;;;35.15;;
32864;SDS011;19219;44.500;11.188;2024-02-28T08:30:05;115.60;;;37.28;;
32864;SDS011;19219;44.500;11.188;2024-02-28T08:32:31;117.88;;;35.47;;
32864;SDS011;19219;44.500;11.188;2024-02-28T08:34:57;114.95;;;32.83;;
32864;SDS011;19219;44.500;11.188;2024-02-28T08:37:23;119.25;;;32.05;;
32864;SDS011;19219;44.500;11.188;2024-02-28T08:39:50;122.20;;;33.60;;
32864;SDS011;19219;44.500;11.188;2024-02-28T08:42:16;125.82;;;38.72;;
32864;SDS011;19219;44.500;11.188;2024-02-28T08:44:42;106.18;;;33.70;;
32864;SDS011;19219;44.500;11.188;2024-02-28T08:47:07;101.78;;;34.83;;
32864;SDS011;19219;44.500;11.188;2024-02-28T08:49:34;113.93;;;36.17;;
32864;SDS011;19219;44.500;11.188;2024-02-28T08:52:01;116.45;;;35.63;;
32864;SDS011;19219;44.500;11.188;2024-02-28T08:54:27;115.60;;;33.03;;
32864;SDS011;19219;44.500;11.188;2024-02-28T08:56:53;109.57;;;31.95;;
32864;SDS011;19219;44.500;11.188;2024-02-28T08:59:18;100.40;;;34.88;;
32864;SDS011;19219;44.500;11.188;2024-02-28T09:01:44;122.22;;;37.38;;
32864;SDS011;19219;44.500;11.188;2024-02-28T09:04:10;100.55;;;33.17;;
32864;SDS011;19219;44.500;11.188;2024-02-28T09:06:36;102.28;;;29.02;;
32864;SDS011;19219;44.500;11.188;2024-02-28T09:09:01;94.78;;;30.67;;
32864;SDS011;19219;44.500;11.188;2024-02-28T09:11:28;87.85;;;28.65;;
32864;SDS011;19219;44.500;11.188;2024-02-28T09:13:54;85.78;;;26.73;;
32864;SDS011;19219;44.500;11.188;2024-02-28T09:16:20;79.40;;;26.70;;
32864;SDS011;19219;44.500;11.188;2024-02-28T09:18:46;81.07;;;26.10;;
32864;SDS011;19219;44.500;11.188;2024-02-28T09:21:11;79.25;;;24.77;;
32864;SDS011;19219;44.500;11.188;2024-02-28T09:23:37;74.30;;;24.27;;
32864;SDS011;19219;44.500;11.188;2024-02-28T09:26:06;73.30;;;25.85;;
32864;SDS011;19219;44.500;11.188;2024-02-28T09:28:32;65.97;;;23.08;;
32864;SDS011;19219;44.500;11.188;2024-02-28T09:30:58;90.35;;;32.75;;
32864;SDS011;19219;44.500;11.188;2024-02-28T09:33:24;77.30;;;26.38;;
32864;SDS011;19219;44.500;11.188;2024-02-28T09:35:49;63.03;;;24.50;;
32864;SDS011;19219;44.500;11.188;2024-02-28T09:38:15;63.78;;;24.58;;
32864;SDS011;19219;44.500;11.188;2024-02-28T09:40:40;60.15;;;23.80;;
32864;SDS011;19219;44.500;11.188;2024-02-28T09:43:11;67.47;;;25.43;;
32864;SDS011;19219;44.500;11.188;2024-02-28T09:45:44;58.40;;;25.13;;
32864;SDS011;19219;44.500;11.188;2024-02-28T09:48:09;67.43;;;28.02;;
32864;SDS011;19219;44.500;11.188;2024-02-28T09:50:37;74.97;;;28.73;;
32864;SDS011;19219;44.500;11.188;2024-02-28T09:53:04;69.22;;;27.33;;
32864;SDS011;19219;44.500;11.188;2024-02-28T09:55:29;69.80;;;28.15;;
32864;SDS011;19219;44.500;11.188;2024-02-28T09:57:55;69.55;;;28.00;;
32864;SDS011;19219;44.500;11.188;2024-02-28T10:00:23;73.78;;;31.40;;
32864;SDS011;19219;44.500;11.188;2024-02-28T10:02:50;78.72;;;28.08;;
32864;SDS011;19219;44.500;11.188;2024-02-28T10:05:17;62.05;;;28.25;;
32864;SDS011;19219;44.500;11.188;2024-02-28T10:07:45;77.57;;;28.83;;
32864;SDS011;19219;44.500;11.188;2024-02-28T10:10:12;79.35;;;30.75;;
32864;SDS011;19219;44.500;11.188;2024-02-28T10:12:41;79.53;;;34.08;;
32864;SDS011;19219;44.500;11.188;2024-02-28T10:15:07;75.00;;;29.73;;
32864;SDS011;19219;44.500;11.188;2024-02-28T10:17:34;75.57;;;29.40;;
32864;SDS011;19219;44.500;11.188;2024-02-28T10:20:00;74.25;;;27.17;;
32864;SDS011;19219;44.500;11.188;2024-02-28T10:22:26;71.25;;;28.63;;
32864;SDS011;19219;44.500;11.188;2024-02-28T10:24:58;69.25;;;27.25;;
32864;SDS011;19219;44.500;11.188;2024-02-28T10:27:26;75.43;;;28.80;;
32864;SDS011;19219;44.500;11.188;2024-02-28T10:29:52;73.28;;;27.83;;
32864;SDS011;19219;44.500;11.188;2024-02-28T10:32:17;72.85;;;28.30;;
32864;SDS011;19219;44.500;11.188;2024-02-28T10:34:43;73.07;;;29.45;;
32864;SDS011;19219;44.500;11.188;2024-02-28T10:37:10;70.15;;;28.92;;
32864;SDS011;19219;44.500;11.188;2024-02-28T10:39:37;71.60;;;28.75;;
32864;SDS011;19219;44.500;11.188;2024-02-28T10:42:03;62.83;;;27.08;;
32864;SDS011;19219;44.500;11.188;2024-02-28T10:44:31;64.88;;;25.17;;
32864;SDS011;19219;44.500;11.188;2024-02-28T10:47:00;70.03;;;25.42;;
32864;SDS011;19219;44.500;11.188;2024-02-28T10:49:29;60.78;;;26.38;;
32864;SDS011;19219;44.500;11.188;2024-02-28T10:51:55;62.92;;;26.40;;
32864;SDS011;19219;44.500;11.188;2024-02-28T10:54:24;64.82;;;27.23;;
32864;SDS011;19219;44.500;11.188;2024-02-28T10:56:53;66.57;;;30.40;;
32864;SDS011;19219;44.500;11.188;2024-02-28T10:59:19;56.72;;;26.38;;
32864;SDS011;19219;44.500;11.188;2024-02-28T11:01:48;53.72;;;25.67;;
32864;SDS011;19219;44.500;11.188;2024-02-28T11:04:15;48.25;;;23.60;;
32864;SDS011;19219;44.500;11.188;2024-02-28T11:06:52;40.17;;;20.80;;
32864;SDS011;19219;44.500;11.188;2024-02-28T11:09:24;38.38;;;19.73;;
32864;SDS011;19219;44.500;11.188;2024-02-28T11:11:53;43.28;;;20.70;;
32864;SDS011;19219;44.500;11.188;2024-02-28T11:14:20;40.25;;;19.65;;
32864;SDS011;19219;44.500;11.188;2024-02-28T11:16:47;36.38;;;19.67;;
32864;SDS011;19219;44.500;11.188;2024-02-28T11:19:24;33.67;;;17.40;;
32864;SDS011;19219;44.500;11.188;2024-02-28T11:21:55;29.50;;;17.38;;
32864;SDS011;19219;44.500;11.188;2024-02-28T11:24:28;29.15;;;14.63;;
32864;SDS011;19219;44.500;11.188;2024-02-28T11:26:58;26.17;;;14.60;;
32864;SDS011;19219;44.500;11.188;2024-02-28T11:29:24;30.98;;;14.57;;
32864;SDS011;19219;44.500;11.188;2024-02-28T11:31:51;27.00;;;15.05;;
32864;SDS011;19219;44.500;11.188;2024-02-28T11:34:18;33.47;;;16.00;;
32864;SDS011;19219;44.500;11.188;2024-02-28T11:36:46;26.77;;;15.18;;
32864;SDS011;19219;44.500;11.188;2024-02-28T11:39:13;24.00;;;13.57;;
32864;SDS011;19219;44.500;11.188;2024-02-28T11:41:39;31.65;;;15.45;;
32864;SDS011;19219;44.500;11.188;2024-02-28T11:44:05;26.25;;;14.52;;
32864;SDS011;19219;44.500;11.188;2024-02-28T11:46:31;29.00;;;15.07;;
32864;SDS011;19219;44.500;11.188;2024-02-28T11:48:57;31.25;;;15.13;;
32864;SDS011;19219;44.500;11.188;2024-02-28T11:51:23;23.02;;;13.27;;
32864;SDS011;19219;44.500;11.188;2024-02-28T11:53:48;26.77;;;14.25;;
32864;SDS011;19219;44.500;11.188;2024-02-28T11:56:14;24.70;;;13.52;;
32864;SDS011;19219;44.500;11.188;2024-02-28T11:58:51;33.03;;;22.40;;
32864;SDS011;19219;44.500;11.188;2024-02-28T12:01:18;37.35;;;24.83;;
32864;SDS011;19219;44.500;11.188;2024-02-28T12:03:45;31.80;;;19.20;;
32864;SDS011;19219;44.500;11.188;2024-02-28T12:06:13;30.98;;;17.55;;
32864;SDS011;19219;44.500;11.188;2024-02-28T12:09:00;35.05;;;19.02;;
32864;SDS011;19219;44.500;11.188;2024-02-28T12:11:26;33.47;;;17.48;;
32864;SDS011;19219;44.500;11.188;2024-02-28T12:13:57;39.70;;;22.88;;
32864;SDS011;19219;44.500;11.188;2024-02-28T12:16:24;30.07;;;15.97;;
32864;SDS011;19219;44.500;11.188;2024-02-28T12:18:51;34.90;;;20.75;;
32864;SDS011;19219;44.500;11.188;2024-02-28T12:21:17;30.30;;;16.65;;
32864;SDS011;19219;44.500;11.188;2024-02-28T12:23:44;32.80;;;18.40;;
32864;SDS011;19219;44.500;11.188;2024-02-28T12:26:11;38.10;;;23.83;;
32864;SDS011;19219;44.500;11.188;2024-02-28T12:28:36;31.45;;;17.38;;
32864;SDS011;19219;44.500;11.188;2024-02-28T12:31:02;34.25;;;18.02;;
32864;SDS011;19219;44.500;11.188;2024-02-28T12:33:30;38.85;;;18.33;;
32864;SDS011;19219;44.500;11.188;2024-02-28T12:35:55;37.13;;;20.60;;
32864;SDS011;19219;44.500;11.188;2024-02-28T12:38:21;40.80;;;24.17;;
32864;SDS011;19219;44.500;11.188;2024-02-28T12:40:47;37.47;;;22.38;;
32864;SDS011;19219;44.500;11.188;2024-02-28T12:43:13;31.90;;;18.73;;
32864;SDS011;19219;44.500;11.188;2024-02-28T12:45:39;39.08;;;21.15;;
32864;SDS011;19219;44.500;11.188;2024-02-28T12:48:05;32.22;;;19.08;;
32864;SDS011;19219;44.500;11.188;2024-02-28T12:50:31;34.00;;;19.80;;
32864;SDS011;19219;44.500;11.188;2024-02-28T12:52:58;35.85;;;19.13;;
32864;SDS011;19219;44.500;11.188;2024-02-28T12:55:25;38.38;;;19.45;;
32864;SDS011;19219;44.500;11.188;2024-02-28T12:57:51;33.28;;;18.88;;
32864;SDS011;19219;44.500;11.188;2024-02-28T13:00:16;34.90;;;23.90;;
32864;SDS011;19219;44.500;11.188;2024-02-28T13:02:43;29.85;;;15.95;;
32864;SDS011;19219;44.500;11.188;2024-02-28T13:05:10;24.50;;;13.05;;
32864;SDS011;19219;44.500;11.188;2024-02-28T13:07:38;25.60;;;14.20;;
32864;SDS011;19219;44.500;11.188;2024-02-28T13:10:04;20.15;;;12.02;;
32864;SDS011;19219;44.500;11.188;2024-02-28T13:12:31;16.75;;;11.07;;
32864;SDS011;19219;44.500;11.188;2024-02-28T13:14:57;17.23;;;10.13;;
32864;SDS011;19219;44.500;11.188;2024-02-28T13:17:23;16.98;;;10.73;;
32864;SDS011;19219;44.500;11.188;2024-02-28T13:19:49;19.67;;;10.80;;
32864;SDS011;19219;44.500;11.188;2024-02-28T13:22:16;19.77;;;9.27;;
32864;SDS011;19219;44.500;11.188;2024-02-28T13:24:41;21.08;;;11.23;;
32864;SDS011;19219;44.500;11.188;2024-02-28T13:27:07;16.33;;;10.10;;
32864;SDS011;19219;44.500;11.188;2024-02-28T13:29:34;12.73;;;8.23;;
32864;SDS011;19219;44.500;11.188;2024-02-28T13:32:00;13.52;;;8.75;;
32864;SDS011;19219;44.500;11.188;2024-02-28T13:34:26;16.08;;;8.07;;
32864;SDS011;19219;44.500;11.188;2024-02-28T13:36:54;17.73;;;9.77;;
32864;SDS011;19219;44.500;11.188;2024-02-28T13:39:20;14.63;;;8.25;;
32864;SDS011;19219;44.500;11.188;2024-02-28T13:41:48;16.92;;;7.95;;
32864;SDS011;19219;44.500;11.188;2024-02-28T13:44:16;12.82;;;7.70;;
32864;SDS011;19219;44.500;11.188;2024-02-28T13:46:44;14.35;;;7.20;;
32864;SDS011;19219;44.500;11.188;2024-02-28T13:49:10;14.20;;;6.97;;
32864;SDS011;19219;44.500;11.188;2024-02-28T13:51:37;12.57;;;6.32;;
32864;SDS011;19219;44.500;11.188;2024-02-28T13:54:03;9.98;;;6.07;;
32864;SDS011;19219;44.500;11.188;2024-02-28T13:56:28;12.70;;;6.40;;
32864;SDS011;19219;44.500;11.188;2024-02-28T13:58:55;12.07;;;6.22;;
32864;SDS011;19219;44.500;11.188;2024-02-28T14:01:21;10.38;;;5.40;;